Whitingham, VT (05361)

5:06 PM EDT on May 03, 2015 (GMT -0400)
South of the Village | | Change Station
CLOSE
Current Station
Personal Weather Station
Location: Jacksonville, VT
Elevation: 1545 ft
Nearby Weather Stations
Active Advisory: Special Statement

Elev 1545 ft 42.76 °N, 72.81 °W | Updated 1 minute ago

Partly Cloudy
Partly Cloudy
69.1 °F
Feels Like 69.1 °F
N
10.7
Wind Variable Wind from NE
Gusts 19.7 mph

Today
High -- | Low -- °F
--% Chance of Precip.
Yesterday
High -- | Low -- °F
Precip. -- in
5:43 AM 7:54 PM
Full, 100% visible
Pressure 30.03 in
Visibility 10.0 miles
Clouds Scattered Clouds 11000 ft
Dew Point 36 °F
Humidity 30%
Rainfall 0.00 in
Snow Depth Not available.
UV 3 out of 12
Pollen 10.70 out of 12
Air Quality Not available.
Flu Activity Regional
METAR KAQW 032052Z AUTO 34007KT 10SM SCT110 24/03 A3003 RMK AO2 SLP168 T02390033 55003

More Conditions Fewer Conditions

Pressure 30.03 in
Visibility 10.0 miles
Clouds Scattered Clouds 11000 ft
Dew Point 36 °F
Humidity 30%
Rainfall 0.00 in
Snow Depth Not available.
UV 3 out of 12
Pollen 10.70 out of 12
Air Quality Not available.
Flu Activity Regional
METAR KAQW 032052Z AUTO 34007KT 10SM SCT110 24/03 A3003 RMK AO2 SLP168 T02390033 55003

More Conditions Fewer Conditions

Nepal has a long way to go to dig out and rebuild from a devastating earthquake. We have teamed up with several charities and organizations to make contributing to the relief effort as easy as possible.
How you can help: Portlight Strategies | Red Cross

10-Day Weather Forecast

Almanac

Astronomy

May. 03, 2015 Rise Set
Actual Time
Civil Twilight
Nautical Twilight
Astronomical Twilight
Moon
Length of Visible Light
Length of Day
Tomorrow will be .
, % of the Moon is Illuminated

Today's Extremes

State Highs State Lows

Community

WunderPhotos

Upload Photos

1,818,369 photos uploaded!

WunderBlogs® & News

Nearby

Air Quality

  Air Quality AQ Index Pollutant
Not available.

Snow Depth

Station Depth Elevation

Earthquake Activity

City Distance Mag. Time & Date
Minimum magnitude displayed is 2.5.

Coastal Water Temperatures

Place Temperature

Stations

Nearby Weather Stations

Station Location Temp. Windchill Dew Point Humidity Wind Precip. Elev Updated Type
                   
Special Statement
Statement as of 2:56 PM EDT on May 03, 2015

... Localized fire weather concerns across southern Vermont for Monday
afternoon...

The combination of gusty winds... low relative humidity values and
dry fuels will result in an enhanced risk for the growth and
spread of any outdoor fires across southern Vermont Monday afternoon
into early Monday evening.

South to southwest winds will gust around 20 to 25 mph as
relative humidity values drop into the mid 20s to lower 30s.
Conditions will improve after sunset as winds weaken and relative
humidities rise.